DAL3080 KMSP-KJAC
Flight info
| Callsign | DAL3080 |
|---|---|
| Flight time | N/A |
| Altitude | 36000 |
| Route | SCHEP1 RXANN TEYOU LLUKY KD78A BOY DNW |
| Aircraft | A21N/M-SDE2E3FGHIRWXY/LB1 |
Departure
| Time | 2026-05-04 18:01 |
|---|---|
| Airport | Minneapolis–Saint Paul International Airport / Wold–Chamberlain Field (KMSP) |
Arrival
| Time | N/A |
|---|---|
| Airport | Jackson Hole Airport (KJAC) |
| Time | Latitude | Longitude | Altitude | Speed | Heading |
|---|---|---|---|---|---|
| 2026-05-04 17:59 | 44.87462 | -93.20371 | 828 ft | 0 kts | 303° |
| 2026-05-04 18:00 | 44.87462 | -93.20372 | 828 ft | 3 kts | 303° |
| 2026-05-04 18:00 | 44.87593 | -93.20677 | 832 ft | 70 kts | 301° |
| 2026-05-04 18:00 | 44.87975 | -93.21559 | 830 ft | 140 kts | 301° |
| 2026-05-04 18:01 | 44.88346 | -93.22427 | 944 ft | 165 kts | 301° |
| 2026-05-04 18:01 | 44.88958 | -93.23865 | 1490 ft | 175 kts | 296° |
| 2026-05-04 18:01 | 44.89254 | -93.25482 | 2346 ft | 168 kts | 283° |
| 2026-05-04 18:02 | 44.88955 | -93.28789 | 3497 ft | 195 kts | 247° |
| 2026-05-04 18:02 | 44.88188 | -93.30505 | 3804 ft | 219 kts | 239° |
| 2026-05-04 18:02 | 44.87228 | -93.32312 | 4172 ft | 239 kts | 237° |
| 2026-05-04 18:02 | 44.86176 | -93.34201 | 4748 ft | 250 kts | 237° |
| 2026-05-04 18:03 | 44.85096 | -93.36138 | 5555 ft | 252 kts | 238° |
| 2026-05-04 18:03 | 44.84013 | -93.38083 | 6335 ft | 252 kts | 239° |
| 2026-05-04 18:03 | 44.82937 | -93.40019 | 7185 ft | 249 kts | 239° |
| 2026-05-04 18:03 | 44.81880 | -93.41924 | 8070 ft | 245 kts | 240° |
| 2026-05-04 18:04 | 44.80837 | -93.43805 | 8955 ft | 242 kts | 240° |
| 2026-05-04 18:04 | 44.79810 | -93.45659 | 9810 ft | 239 kts | 240° |
| 2026-05-04 18:04 | 44.77733 | -93.49432 | 10912 ft | 256 kts | 240° |
| 2026-05-04 18:05 | 44.76607 | -93.51485 | 11199 ft | 274 kts | 239° |
| 2026-05-04 18:05 | 44.75402 | -93.53670 | 11464 ft | 291 kts | 239° |
| 2026-05-04 18:05 | 44.74124 | -93.55979 | 11775 ft | 306 kts | 239° |
| 2026-05-04 18:05 | 44.72792 | -93.58372 | 12260 ft | 314 kts | 238° |
| 2026-05-04 18:06 | 44.70067 | -93.63251 | 13522 ft | 320 kts | 238° |
| 2026-05-04 18:06 | 44.68688 | -93.65723 | 14084 ft | 323 kts | 238° |
| 2026-05-04 18:06 | 44.67297 | -93.68217 | 14638 ft | 326 kts | 238° |
| 2026-05-04 18:07 | 44.65890 | -93.70738 | 15213 ft | 329 kts | 238° |
| 2026-05-04 18:07 | 44.64472 | -93.73277 | 15794 ft | 332 kts | 238° |
| 2026-05-04 18:07 | 44.63040 | -93.75840 | 16382 ft | 335 kts | 237° |
| 2026-05-04 18:07 | 44.61597 | -93.78421 | 16949 ft | 338 kts | 237° |
| 2026-05-04 18:08 | 44.60135 | -93.81031 | 17484 ft | 341 kts | 237° |
| 2026-05-04 18:08 | 44.58663 | -93.83671 | 17974 ft | 346 kts | 238° |
| 2026-05-04 18:08 | 44.57217 | -93.86382 | 18434 ft | 348 kts | 239° |
| 2026-05-04 18:08 | 44.55783 | -93.89119 | 18948 ft | 349 kts | 239° |
| 2026-05-04 18:09 | 44.52888 | -93.94656 | 19797 ft | 355 kts | 239° |
| 2026-05-04 18:09 | 44.49951 | -94.00258 | 20760 ft | 358 kts | 239° |
| 2026-05-04 18:10 | 44.48470 | -94.03078 | 21218 ft | 360 kts | 239° |
| 2026-05-04 18:10 | 44.46980 | -94.05913 | 21678 ft | 362 kts | 239° |
| 2026-05-04 18:10 | 44.45481 | -94.08761 | 22136 ft | 364 kts | 239° |
| 2026-05-04 18:10 | 44.43972 | -94.11625 | 22583 ft | 367 kts | 239° |
| 2026-05-04 18:11 | 44.42455 | -94.14501 | 23030 ft | 369 kts | 239° |
| 2026-05-04 18:11 | 44.40943 | -94.17365 | 23426 ft | 371 kts | 239° |
| 2026-05-04 18:11 | 44.39403 | -94.20277 | 23792 ft | 373 kts | 239° |
| 2026-05-04 18:11 | 44.37856 | -94.23199 | 24165 ft | 375 kts | 239° |
| 2026-05-04 18:12 | 44.36300 | -94.26134 | 24529 ft | 377 kts | 239° |
| 2026-05-04 18:12 | 44.34735 | -94.29084 | 24880 ft | 379 kts | 239° |
| 2026-05-04 18:12 | 44.33161 | -94.32048 | 25154 ft | 382 kts | 239° |
| 2026-05-04 18:12 | 44.31570 | -94.35043 | 25387 ft | 386 kts | 239° |
| 2026-05-04 18:13 | 44.29966 | -94.38057 | 25703 ft | 388 kts | 239° |
| 2026-05-04 18:13 | 44.28355 | -94.41081 | 26028 ft | 389 kts | 239° |
| 2026-05-04 18:13 | 44.25115 | -94.47155 | 26622 ft | 392 kts | 239° |
| 2026-05-04 18:14 | 44.23479 | -94.50219 | 26908 ft | 394 kts | 239° |
| 2026-05-04 18:14 | 44.21842 | -94.53288 | 27194 ft | 395 kts | 239° |
| 2026-05-04 18:14 | 44.20201 | -94.56366 | 27509 ft | 396 kts | 239° |
| 2026-05-04 18:15 | 44.16921 | -94.62518 | 28262 ft | 395 kts | 239° |
| 2026-05-04 18:15 | 44.13652 | -94.68628 | 29111 ft | 392 kts | 239° |
| 2026-05-04 18:15 | 44.12021 | -94.71669 | 29400 ft | 393 kts | 239° |
| 2026-05-04 18:16 | 44.10386 | -94.74731 | 29611 ft | 395 kts | 239° |
| 2026-05-04 18:16 | 44.08748 | -94.77801 | 29940 ft | 394 kts | 239° |
| 2026-05-04 18:16 | 44.07117 | -94.80854 | 30290 ft | 392 kts | 239° |
| 2026-05-04 18:17 | 44.03879 | -94.86913 | 30993 ft | 388 kts | 239° |
| 2026-05-04 18:17 | 44.02273 | -94.89916 | 31306 ft | 386 kts | 239° |
| 2026-05-04 18:17 | 43.99101 | -94.95848 | 31895 ft | 384 kts | 239° |
| 2026-05-04 18:18 | 43.97509 | -94.98817 | 32162 ft | 383 kts | 239° |
| 2026-05-04 18:18 | 43.95919 | -95.01780 | 32427 ft | 382 kts | 239° |
| 2026-05-04 18:18 | 43.94333 | -95.04735 | 32696 ft | 381 kts | 239° |
| 2026-05-04 18:18 | 43.92752 | -95.07680 | 32968 ft | 380 kts | 239° |
| 2026-05-04 18:19 | 43.89611 | -95.13564 | 33271 ft | 381 kts | 239° |
| 2026-05-04 18:19 | 43.88042 | -95.16537 | 33429 ft | 382 kts | 239° |
| 2026-05-04 18:19 | 43.86477 | -95.19504 | 33670 ft | 381 kts | 239° |
| 2026-05-04 18:20 | 43.84916 | -95.22464 | 33882 ft | 380 kts | 239° |
| 2026-05-04 18:20 | 43.83358 | -95.25416 | 34049 ft | 380 kts | 239° |
| 2026-05-04 18:20 | 43.81799 | -95.28372 | 34192 ft | 380 kts | 239° |
| 2026-05-04 18:20 | 43.80238 | -95.31333 | 34333 ft | 380 kts | 239° |
| 2026-05-04 18:21 | 43.78682 | -95.34288 | 34499 ft | 380 kts | 240° |
| 2026-05-04 18:21 | 43.77122 | -95.37243 | 34667 ft | 380 kts | 240° |
| 2026-05-04 18:21 | 43.75564 | -95.40194 | 34799 ft | 380 kts | 240° |
| 2026-05-04 18:21 | 43.74008 | -95.43145 | 34910 ft | 380 kts | 240° |
| 2026-05-04 18:22 | 43.72450 | -95.46102 | 35037 ft | 380 kts | 240° |
| 2026-05-04 18:22 | 43.70891 | -95.49062 | 35169 ft | 380 kts | 240° |
| 2026-05-04 18:22 | 43.67775 | -95.55012 | 35159 ft | 386 kts | 240° |
| 2026-05-04 18:23 | 43.64641 | -95.61045 | 35392 ft | 386 kts | 240° |
| 2026-05-04 18:23 | 43.61514 | -95.67076 | 35544 ft | 387 kts | 240° |
| 2026-05-04 18:24 | 43.58378 | -95.73134 | 35698 ft | 389 kts | 240° |
| 2026-05-04 18:24 | 43.55226 | -95.79231 | 35717 ft | 391 kts | 240° |
| 2026-05-04 18:25 | 43.52080 | -95.85321 | 35714 ft | 390 kts | 240° |
| 2026-05-04 18:25 | 43.48938 | -95.91413 | 35716 ft | 390 kts | 240° |
| 2026-05-04 18:26 | 43.45805 | -95.97504 | 35721 ft | 391 kts | 240° |
| 2026-05-04 18:26 | 43.42665 | -96.03633 | 35721 ft | 392 kts | 240° |
| 2026-05-04 18:27 | 43.39525 | -96.09772 | 35718 ft | 392 kts | 240° |
| 2026-05-04 18:27 | 43.36392 | -96.15905 | 35722 ft | 392 kts | 240° |
| 2026-05-04 18:28 | 43.33257 | -96.22049 | 35719 ft | 391 kts | 240° |
| 2026-05-04 18:28 | 43.30136 | -96.28174 | 35720 ft | 391 kts | 240° |
| 2026-05-04 18:29 | 43.27018 | -96.34300 | 35721 ft | 391 kts | 240° |
| 2026-05-04 18:29 | 43.23906 | -96.40425 | 35730 ft | 392 kts | 240° |
| 2026-05-04 18:30 | 43.19258 | -96.49620 | 35718 ft | 393 kts | 240° |
| 2026-05-04 18:31 | 43.16152 | -96.55786 | 35722 ft | 393 kts | 240° |
| 2026-05-04 18:31 | 43.13055 | -96.61949 | 35727 ft | 393 kts | 240° |
| 2026-05-04 18:32 | 43.09961 | -96.68113 | 35728 ft | 393 kts | 240° |
| 2026-05-04 18:32 | 43.06870 | -96.74282 | 35730 ft | 393 kts | 240° |
| 2026-05-04 18:33 | 43.03787 | -96.80442 | 35737 ft | 393 kts | 241° |
| 2026-05-04 18:33 | 43.00708 | -96.86607 | 35746 ft | 393 kts | 241° |
| 2026-05-04 18:34 | 42.97626 | -96.92813 | 35758 ft | 396 kts | 241° |
| 2026-05-04 18:34 | 42.94541 | -96.99039 | 35766 ft | 396 kts | 241° |
| 2026-05-04 18:35 | 42.91461 | -97.05259 | 35780 ft | 396 kts | 241° |
| 2026-05-04 18:35 | 42.88385 | -97.11481 | 35767 ft | 395 kts | 241° |
| 2026-05-04 18:36 | 42.85318 | -97.17695 | 35772 ft | 395 kts | 241° |
| 2026-05-04 18:36 | 42.82251 | -97.23916 | 35773 ft | 395 kts | 241° |
| 2026-05-04 18:37 | 42.79191 | -97.30132 | 35785 ft | 395 kts | 241° |
| 2026-05-04 18:37 | 42.76127 | -97.36357 | 35781 ft | 397 kts | 241° |
| 2026-05-04 18:38 | 42.73071 | -97.42570 | 35780 ft | 398 kts | 241° |
| 2026-05-04 18:38 | 42.70002 | -97.48822 | 35785 ft | 398 kts | 241° |
| 2026-05-04 18:39 | 42.66935 | -97.55078 | 35783 ft | 398 kts | 241° |
| 2026-05-04 18:39 | 42.63873 | -97.61331 | 35782 ft | 397 kts | 241° |
| 2026-05-04 18:40 | 42.60819 | -97.67587 | 35784 ft | 397 kts | 241° |
| 2026-05-04 18:40 | 42.57769 | -97.73840 | 35781 ft | 397 kts | 241° |
| 2026-05-04 18:41 | 42.54723 | -97.80092 | 35790 ft | 397 kts | 242° |
| 2026-05-04 18:41 | 42.51682 | -97.86345 | 35791 ft | 397 kts | 242° |
| 2026-05-04 18:42 | 42.48645 | -97.92600 | 35785 ft | 397 kts | 242° |
| 2026-05-04 18:42 | 42.45613 | -97.98846 | 35784 ft | 397 kts | 242° |
| 2026-05-04 18:43 | 42.42603 | -98.05067 | 35789 ft | 398 kts | 242° |
| 2026-05-04 18:43 | 42.39573 | -98.11336 | 35785 ft | 398 kts | 242° |
| 2026-05-04 18:44 | 42.36549 | -98.17602 | 35785 ft | 398 kts | 242° |
| 2026-05-04 18:44 | 42.33531 | -98.23866 | 35787 ft | 398 kts | 242° |
| 2026-05-04 18:45 | 42.30518 | -98.30128 | 35776 ft | 398 kts | 242° |
| 2026-05-04 18:45 | 42.27496 | -98.36396 | 35774 ft | 399 kts | 242° |
| 2026-05-04 18:46 | 42.24474 | -98.42686 | 35783 ft | 399 kts | 242° |
| 2026-05-04 18:46 | 42.21456 | -98.48978 | 35792 ft | 399 kts | 242° |
| 2026-05-04 18:47 | 42.18444 | -98.55268 | 35780 ft | 399 kts | 242° |
| 2026-05-04 18:47 | 42.15941 | -98.60498 | 35780 ft | 399 kts | 242° |
| 2026-05-04 18:48 | 42.12934 | -98.66789 | 35780 ft | 399 kts | 242° |
| 2026-05-04 18:48 | 42.09935 | -98.73074 | 35765 ft | 399 kts | 242° |
| 2026-05-04 18:49 | 42.06942 | -98.79371 | 35766 ft | 399 kts | 242° |
| 2026-05-04 18:49 | 42.04021 | -98.85706 | 35776 ft | 396 kts | 247° |
| 2026-05-04 18:50 | 42.02122 | -98.92555 | 35775 ft | 389 kts | 261° |
| 2026-05-04 18:50 | 42.01873 | -98.99737 | 35777 ft | 385 kts | 278° |
| 2026-05-04 18:51 | 42.02985 | -99.06776 | 35779 ft | 386 kts | 284° |
| 2026-05-04 18:51 | 42.04409 | -99.13739 | 35808 ft | 386 kts | 285° |
| 2026-05-04 18:52 | 42.05855 | -99.20713 | 35776 ft | 387 kts | 284° |
| 2026-05-04 18:52 | 42.07259 | -99.27680 | 35777 ft | 387 kts | 284° |
| 2026-05-04 18:53 | 42.08646 | -99.34696 | 35782 ft | 387 kts | 284° |
| 2026-05-04 18:53 | 42.10017 | -99.41686 | 35780 ft | 387 kts | 284° |
| 2026-05-04 18:54 | 42.11385 | -99.48678 | 35775 ft | 387 kts | 284° |
| 2026-05-04 18:54 | 42.12300 | -99.53370 | 35779 ft | 387 kts | 284° |
| 2026-05-04 18:55 | 42.13648 | -99.60298 | 35787 ft | 387 kts | 284° |
| 2026-05-04 18:55 | 42.15682 | -99.70797 | 35785 ft | 387 kts | 284° |
| 2026-05-04 18:56 | 42.17035 | -99.77809 | 35785 ft | 387 kts | 284° |
| 2026-05-04 18:56 | 42.18384 | -99.84826 | 35775 ft | 386 kts | 284° |
| 2026-05-04 18:57 | 42.19726 | -99.91835 | 35792 ft | 386 kts | 284° |
| 2026-05-04 18:57 | 42.21065 | -99.98850 | 35791 ft | 386 kts | 284° |
| 2026-05-04 18:58 | 42.22398 | -100.05861 | 35790 ft | 386 kts | 283° |
| 2026-05-04 18:58 | 42.23726 | -100.12868 | 35791 ft | 386 kts | 283° |
| 2026-05-04 18:59 | 42.25051 | -100.19889 | 35798 ft | 386 kts | 283° |
| 2026-05-04 18:59 | 42.26371 | -100.26910 | 35798 ft | 386 kts | 283° |
| 2026-05-04 19:00 | 42.27688 | -100.33936 | 35803 ft | 385 kts | 283° |
| 2026-05-04 19:00 | 42.28998 | -100.40954 | 35805 ft | 386 kts | 283° |
| 2026-05-04 19:01 | 42.30305 | -100.47982 | 35811 ft | 386 kts | 283° |
| 2026-05-04 19:01 | 42.31608 | -100.55012 | 35810 ft | 386 kts | 283° |
| 2026-05-04 19:02 | 42.32907 | -100.62048 | 35815 ft | 386 kts | 283° |
| 2026-05-04 19:02 | 42.34193 | -100.69040 | 35817 ft | 386 kts | 283° |
| 2026-05-04 19:03 | 42.35482 | -100.76074 | 35818 ft | 386 kts | 283° |
| 2026-05-04 19:03 | 42.36760 | -100.83074 | 35824 ft | 386 kts | 283° |
| 2026-05-04 19:04 | 42.38035 | -100.90082 | 35828 ft | 386 kts | 283° |
| 2026-05-04 19:04 | 42.39305 | -100.97088 | 35825 ft | 386 kts | 283° |
| 2026-05-04 19:05 | 42.40570 | -101.04098 | 35832 ft | 386 kts | 283° |
| 2026-05-04 19:05 | 42.41834 | -101.11128 | 35832 ft | 386 kts | 283° |
| 2026-05-04 19:06 | 42.43091 | -101.18144 | 35831 ft | 385 kts | 283° |
| 2026-05-04 19:06 | 42.44342 | -101.25150 | 35831 ft | 385 kts | 283° |
| 2026-05-04 19:07 | 42.45591 | -101.32175 | 35831 ft | 385 kts | 283° |
| 2026-05-04 19:07 | 42.46834 | -101.39192 | 35847 ft | 386 kts | 283° |
| 2026-05-04 19:08 | 42.48089 | -101.46309 | 35850 ft | 386 kts | 283° |
| 2026-05-04 19:08 | 42.49323 | -101.53327 | 35851 ft | 385 kts | 283° |
| 2026-05-04 19:09 | 42.50559 | -101.60386 | 35853 ft | 385 kts | 283° |
| 2026-05-04 19:09 | 42.51792 | -101.67455 | 35856 ft | 385 kts | 283° |
| 2026-05-04 19:10 | 42.53021 | -101.74530 | 35861 ft | 386 kts | 282° |
| 2026-05-04 19:10 | 42.54245 | -101.81605 | 35867 ft | 386 kts | 282° |
| 2026-05-04 19:11 | 42.55465 | -101.88689 | 35873 ft | 385 kts | 282° |
| 2026-05-04 19:11 | 42.56681 | -101.95772 | 35883 ft | 386 kts | 282° |
| 2026-05-04 19:12 | 42.58496 | -102.06396 | 35885 ft | 386 kts | 282° |
| 2026-05-04 19:13 | 42.59701 | -102.13491 | 35899 ft | 386 kts | 282° |
| 2026-05-04 19:13 | 42.60902 | -102.20586 | 35882 ft | 385 kts | 282° |
| 2026-05-04 19:14 | 42.62098 | -102.27676 | 35882 ft | 385 kts | 282° |
| 2026-05-04 19:14 | 42.63287 | -102.34762 | 35886 ft | 385 kts | 282° |
| 2026-05-04 19:15 | 42.64474 | -102.41856 | 35869 ft | 385 kts | 282° |
| 2026-05-04 19:15 | 42.65657 | -102.48962 | 35892 ft | 386 kts | 282° |
| 2026-05-04 19:16 | 42.66838 | -102.56081 | 35899 ft | 386 kts | 282° |
| 2026-05-04 19:16 | 42.67987 | -102.63037 | 35900 ft | 386 kts | 282° |
| 2026-05-04 19:17 | 42.69092 | -102.69755 | 35902 ft | 386 kts | 282° |
| 2026-05-04 19:17 | 42.70253 | -102.76837 | 35908 ft | 386 kts | 282° |
| 2026-05-04 19:18 | 42.71418 | -102.83974 | 35929 ft | 387 kts | 282° |
| 2026-05-04 19:18 | 42.72576 | -102.91105 | 35924 ft | 386 kts | 282° |
| 2026-05-04 19:19 | 42.73730 | -102.98239 | 35926 ft | 386 kts | 282° |
| 2026-05-04 19:19 | 42.74881 | -103.05377 | 35924 ft | 386 kts | 282° |
| 2026-05-04 19:20 | 42.76026 | -103.12511 | 35926 ft | 386 kts | 282° |
| 2026-05-04 19:20 | 42.77168 | -103.19657 | 35930 ft | 387 kts | 282° |
| 2026-05-04 19:21 | 42.78307 | -103.26820 | 35924 ft | 388 kts | 282° |
| 2026-05-04 19:21 | 42.79445 | -103.33999 | 35925 ft | 387 kts | 282° |
| 2026-05-04 19:22 | 42.80577 | -103.41178 | 35918 ft | 388 kts | 281° |
| 2026-05-04 19:22 | 42.81704 | -103.48352 | 35906 ft | 387 kts | 281° |
| 2026-05-04 19:23 | 42.82826 | -103.55525 | 35916 ft | 388 kts | 281° |
| 2026-05-04 19:23 | 42.83944 | -103.62713 | 35904 ft | 387 kts | 281° |
| 2026-05-04 19:24 | 42.85056 | -103.69882 | 35887 ft | 387 kts | 281° |
| 2026-05-04 19:24 | 42.86164 | -103.77060 | 35884 ft | 387 kts | 281° |
| 2026-05-04 19:25 | 42.87266 | -103.84233 | 35872 ft | 387 kts | 281° |
| 2026-05-04 19:25 | 42.88366 | -103.91422 | 35871 ft | 389 kts | 281° |
| 2026-05-04 19:26 | 42.89466 | -103.98644 | 35875 ft | 389 kts | 281° |
| 2026-05-04 19:26 | 42.90562 | -104.05874 | 35892 ft | 389 kts | 281° |
| 2026-05-04 19:27 | 42.91651 | -104.13093 | 35910 ft | 389 kts | 281° |
| 2026-05-04 19:27 | 42.92731 | -104.20278 | 35910 ft | 389 kts | 281° |
| 2026-05-04 19:28 | 42.93820 | -104.27559 | 35923 ft | 390 kts | 281° |
| 2026-05-04 19:28 | 42.94890 | -104.34749 | 35916 ft | 389 kts | 281° |
| 2026-05-04 19:29 | 42.95963 | -104.41989 | 35918 ft | 389 kts | 281° |
| 2026-05-04 19:29 | 42.97031 | -104.49227 | 35905 ft | 389 kts | 281° |
| 2026-05-04 19:30 | 42.98087 | -104.56414 | 35904 ft | 389 kts | 281° |
| 2026-05-04 19:30 | 42.99144 | -104.63645 | 35891 ft | 388 kts | 281° |
| 2026-05-04 19:31 | 43.00183 | -104.70794 | 35901 ft | 389 kts | 281° |
| 2026-05-04 19:31 | 43.01239 | -104.78082 | 35895 ft | 389 kts | 281° |
| 2026-05-04 19:32 | 43.02276 | -104.85277 | 35896 ft | 389 kts | 281° |
| 2026-05-04 19:32 | 43.03147 | -104.91345 | 35896 ft | 388 kts | 281° |
| 2026-05-04 19:33 | 43.04351 | -104.99775 | 35891 ft | 389 kts | 281° |